createdAt,value
2019-05-20T00:02:03.137Z,20.03
2019-05-20T00:06:04.145Z,21.23
2019-05-20T00:10:06.305Z,21.50
2019-05-20T00:14:07.210Z,21.97
2019-05-20T00:18:08.106Z,26.33
2019-05-20T00:22:09.006Z,22.47
2019-05-20T00:26:09.933Z,38.87
2019-05-20T00:30:11.315Z,25.03
2019-05-20T00:34:12.247Z,36.43
2019-05-20T00:38:13.130Z,22.57
2019-05-20T00:42:14.013Z,40.47
2019-05-20T00:46:14.891Z,17.07
2019-05-20T00:50:15.974Z,18.97
2019-05-20T00:54:16.861Z,27.03
2019-05-20T00:58:17.945Z,22.37
2019-05-20T01:02:19.019Z,18.13
2019-05-20T01:06:19.971Z,57.13
2019-05-20T01:10:20.939Z,23.30
2019-05-20T01:14:21.845Z,61.50
2019-05-20T01:18:22.770Z,35.70
2019-05-20T01:22:23.683Z,28.77
2019-05-20T01:26:24.734Z,25.70
2019-05-20T01:30:25.743Z,19.50
2019-05-20T01:34:26.600Z,21.63
2019-05-20T01:38:27.499Z,20.37
2019-05-20T01:42:28.385Z,20.03
2019-05-20T01:46:29.337Z,17.13
2019-05-20T01:50:30.234Z,17.10
2019-05-20T01:54:31.233Z,13.50
2019-05-20T01:58:32.153Z,23.73
2019-05-20T02:02:33.165Z,16.03
2019-05-20T02:06:34.114Z,18.47
2019-05-20T02:10:35.094Z,21.30
2019-05-20T02:14:37.925Z,19.10
2019-05-20T02:18:38.905Z,19.07
2019-05-20T02:22:39.796Z,16.40
2019-05-20T02:26:40.748Z,15.87
2019-05-20T02:30:41.884Z,20.47
2019-05-20T02:34:42.987Z,19.07
2019-05-20T02:38:43.875Z,19.47
2019-05-20T02:42:44.746Z,18.27
2019-05-20T02:46:45.813Z,15.23
2019-05-20T02:50:46.793Z,15.50
2019-05-20T02:54:47.694Z,17.10
2019-05-20T02:58:48.580Z,16.30
2019-05-20T03:02:49.457Z,17.67
2019-05-20T03:06:50.339Z,35.70
2019-05-20T03:10:51.290Z,24.87
2019-05-20T03:14:52.256Z,34.13
2019-05-20T03:18:53.135Z,32.13
2019-05-20T03:22:54.039Z,18.17
2019-05-20T03:26:54.921Z,17.40
2019-05-20T03:30:55.814Z,17.33
2019-05-20T03:35:00.084Z,17.33
2019-05-20T03:38:59.754Z,27.43
2019-05-20T03:43:00.630Z,23.77
2019-05-20T03:47:01.666Z,28.50
2019-05-20T03:51:02.728Z,26.73
2019-05-20T03:55:05.388Z,41.50
2019-05-20T03:59:06.273Z,26.50
2019-05-20T04:03:07.206Z,31.27
2019-05-20T04:07:08.099Z,32.87
2019-05-20T04:11:08.983Z,29.40
2019-05-20T04:15:10.295Z,26.60
2019-05-20T04:19:14.478Z,50.10
2019-05-20T04:23:17.779Z,89.83
2019-05-20T04:27:18.866Z,45.90
2019-05-20T04:31:20.118Z,66.87
2019-05-20T04:35:23.197Z,96.03
2019-05-20T04:39:24.118Z,60.50
2019-05-20T04:43:25.310Z,51.70
2019-05-20T04:47:26.175Z,76.93
2019-05-20T04:51:27.015Z,144.73
2019-05-20T04:55:27.919Z,85.60
2019-05-20T04:59:28.861Z,82.00
2019-05-20T05:03:29.878Z,136.07
2019-05-20T05:07:30.734Z,91.07
2019-05-20T05:11:31.636Z,84.47
2019-05-20T05:15:32.739Z,109.77
2019-05-20T05:19:33.833Z,153.90
2019-05-20T05:23:34.933Z,102.93
2019-05-20T05:27:36.006Z,93.63
2019-05-20T05:31:37.036Z,140.00
2019-05-20T05:35:50.817Z,79.60
2019-05-20T05:39:40.718Z,104.63
2019-05-20T05:43:41.678Z,63.90
2019-05-20T05:47:42.560Z,75.87
2019-05-20T05:51:43.442Z,79.57
2019-05-20T05:55:44.347Z,95.20
2019-05-20T05:59:45.224Z,79.87
2019-05-20T06:03:46.090Z,84.17
2019-05-20T06:07:47.093Z,83.57
2019-05-20T06:11:47.972Z,70.60
2019-05-20T06:15:48.882Z,47.73
2019-05-20T06:19:49.726Z,51.43
2019-05-20T06:23:50.639Z,59.70
2019-05-20T06:27:51.605Z,61.93
2019-05-20T06:31:52.641Z,84.50
2019-05-20T06:35:53.835Z,73.20
2019-05-20T06:39:54.779Z,73.30
2019-05-20T06:43:55.650Z,78.17
2019-05-20T06:47:56.517Z,77.30
2019-05-20T06:51:57.623Z,75.60
2019-05-20T06:55:58.640Z,75.37
2019-05-20T06:59:59.611Z,88.37
2019-05-20T07:04:00.493Z,68.07
2019-05-20T07:08:01.647Z,61.87
2019-05-20T07:12:03.085Z,60.30
2019-05-20T07:16:04.169Z,68.20
2019-05-20T07:20:05.325Z,69.17
2019-05-20T07:24:06.352Z,72.97
2019-05-20T07:28:07.340Z,76.47
2019-05-20T07:32:08.249Z,73.77
2019-05-20T07:36:10.166Z,67.53
2019-05-20T07:40:13.576Z,62.13
2019-05-20T07:44:14.587Z,58.50
2019-05-20T07:48:15.746Z,61.47
2019-05-20T07:52:17.217Z,65.67
2019-05-20T07:56:21.891Z,55.83
2019-05-20T08:00:22.897Z,50.13
2019-05-20T08:04:23.911Z,52.43
2019-05-20T08:08:25.049Z,68.50
2019-05-20T08:12:45.811Z,55.63
2019-05-20T08:16:46.906Z,48.27
2019-05-20T08:20:47.936Z,43.63
2019-05-20T08:24:49.682Z,43.60
2019-05-20T08:28:50.912Z,46.13
2019-05-20T08:32:54.080Z,41.97
2019-05-20T08:36:55.157Z,44.00
2019-05-20T08:40:56.146Z,38.93
2019-05-20T08:44:57.185Z,37.03
2019-05-20T08:48:58.372Z,35.10
2019-05-20T08:52:59.332Z,34.93
2019-05-20T08:57:02.936Z,34.17
2019-05-20T09:01:04.026Z,30.20
2019-05-20T09:05:05.743Z,31.03
2019-05-20T09:09:06.861Z,28.83
2019-05-20T09:13:07.961Z,27.27
2019-05-20T09:17:08.985Z,27.77
2019-05-20T09:21:10.192Z,26.77
2019-05-20T09:25:11.908Z,27.33
2019-05-20T09:29:13.035Z,29.07
2019-05-20T09:33:14.766Z,28.07
2019-05-20T09:37:16.216Z,27.83
2019-05-20T09:41:17.147Z,29.00
2019-05-20T09:45:18.217Z,25.03
2019-05-20T09:49:19.140Z,26.60
2019-05-20T09:53:20.543Z,25.27
2019-05-20T09:57:21.649Z,24.00
2019-05-20T10:01:22.852Z,28.40
2019-05-20T10:05:23.936Z,25.13
2019-05-20T10:09:24.819Z,25.43
2019-05-20T10:13:25.802Z,24.43
2019-05-20T10:17:26.695Z,26.63
2019-05-20T10:21:27.702Z,25.70
2019-05-20T10:25:28.576Z,25.77
2019-05-20T10:29:29.478Z,23.90
2019-05-20T10:33:30.397Z,25.30
2019-05-20T10:37:31.280Z,25.53
2019-05-20T10:41:32.161Z,23.87
2019-05-20T10:45:33.271Z,25.60
2019-05-20T10:49:34.244Z,25.03
2019-05-20T10:53:35.150Z,25.87
2019-05-20T10:57:36.125Z,28.83
2019-05-20T11:01:37.021Z,25.97
2019-05-20T11:05:38.131Z,27.80
2019-05-20T11:09:39.111Z,30.23
2019-05-20T11:13:39.989Z,29.03
2019-05-20T11:17:40.922Z,29.00
2019-05-20T11:21:41.789Z,26.97
2019-05-20T11:25:42.704Z,25.97
2019-05-20T11:29:43.703Z,32.13
2019-05-20T11:33:44.593Z,30.43
2019-05-20T11:37:45.584Z,33.43
2019-05-20T11:41:53.377Z,30.90
2019-05-20T11:45:49.475Z,35.67
2019-05-20T11:49:50.462Z,37.47
2019-05-20T11:53:51.469Z,38.57
2019-05-20T11:57:52.736Z,41.87
2019-05-20T12:01:53.631Z,34.53
2019-05-20T12:05:54.741Z,37.57
2019-05-20T12:09:55.677Z,38.70
2019-05-20T12:13:56.544Z,46.83
2019-05-20T12:17:57.589Z,52.13
2019-05-20T12:21:58.481Z,50.97
2019-05-20T12:25:59.368Z,42.40
2019-05-20T12:30:00.308Z,58.70
2019-05-20T12:34:01.309Z,52.93
2019-05-20T12:38:02.183Z,47.20
2019-05-20T12:42:03.416Z,52.50
2019-05-20T12:46:04.448Z,48.60
2019-05-20T12:50:05.654Z,59.47
2019-05-20T12:54:09.103Z,45.40
2019-05-20T12:58:10.086Z,51.23
2019-05-20T13:02:11.136Z,50.50
2019-05-20T13:06:11.979Z,58.50
2019-05-20T13:10:27.747Z,54.47
2019-05-20T13:14:16.042Z,60.50
2019-05-20T13:18:17.124Z,57.30
2019-05-20T13:22:18.060Z,59.53
2019-05-20T13:26:19.238Z,54.67
2019-05-20T13:30:20.955Z,59.20
2019-05-20T13:34:21.826Z,66.97
2019-05-20T13:38:23.266Z,68.70
2019-05-20T13:42:24.176Z,61.63
2019-05-20T13:46:25.058Z,62.70
2019-05-20T13:50:26.051Z,73.03
2019-05-20T13:54:27.121Z,68.67
2019-05-20T13:58:28.046Z,70.07
2019-05-20T14:02:28.913Z,74.43
2019-05-20T14:06:29.896Z,81.80
2019-05-20T14:10:30.909Z,75.60
2019-05-20T14:14:31.837Z,74.73
2019-05-20T14:18:37.015Z,76.17
2019-05-20T14:22:38.148Z,79.53
2019-05-20T14:26:39.036Z,85.73
2019-05-20T14:30:40.032Z,82.30
2019-05-20T14:34:40.986Z,81.20
2019-05-20T14:38:42.389Z,81.13
2019-05-20T14:42:43.293Z,73.97
2019-05-20T14:46:44.186Z,81.17
2019-05-20T14:50:45.088Z,83.60
2019-05-20T14:54:47.893Z,78.60
2019-05-20T14:58:48.772Z,76.60
2019-05-20T15:02:49.716Z,69.53
2019-05-20T15:06:50.711Z,83.83
2019-05-20T15:10:51.616Z,76.30
2019-05-20T15:14:52.850Z,75.27
2019-05-20T15:18:53.850Z,83.40
2019-05-20T15:22:54.763Z,68.70
2019-05-20T15:26:55.888Z,72.37
2019-05-20T15:30:56.964Z,71.63
2019-05-20T15:34:57.896Z,71.33
2019-05-20T15:38:58.855Z,72.60
2019-05-20T15:42:59.869Z,81.03
2019-05-20T15:47:00.843Z,84.13
2019-05-20T15:51:01.834Z,72.93
2019-05-20T15:55:04.125Z,73.43
2019-05-20T15:59:06.965Z,77.87
2019-05-20T16:03:07.845Z,65.33
2019-05-20T16:07:08.854Z,82.87
2019-05-20T16:11:09.738Z,78.57
2019-05-20T16:15:11.002Z,80.43
2019-05-20T16:19:12.127Z,72.03
2019-05-20T16:23:13.482Z,77.27
2019-05-20T16:27:14.790Z,78.63
2019-05-20T16:31:15.813Z,72.80
2019-05-20T16:35:16.806Z,83.17
2019-05-20T16:39:17.744Z,80.00
2019-05-20T16:43:18.634Z,77.47
2019-05-20T16:47:19.730Z,79.17
2019-05-20T16:51:22.410Z,85.53
2019-05-20T16:55:23.701Z,83.37
2019-05-20T16:59:24.672Z,77.03
2019-05-20T17:03:25.589Z,80.10
2019-05-20T17:07:26.566Z,75.20
2019-05-20T17:11:27.489Z,79.43
2019-05-20T17:15:28.388Z,81.97
2019-05-20T17:19:29.302Z,80.70
2019-05-20T17:23:30.402Z,81.37
2019-05-20T17:27:31.387Z,74.77
2019-05-20T17:31:32.381Z,78.30
2019-05-20T17:35:33.400Z,80.13
2019-05-20T17:39:34.489Z,76.63
2019-05-20T17:43:40.425Z,69.00
2019-05-20T17:47:41.565Z,82.03
2019-05-20T17:51:43.369Z,72.67
2019-05-20T17:55:44.584Z,74.43
2019-05-20T17:59:45.454Z,70.03
2019-05-20T18:03:46.455Z,68.67
2019-05-20T18:07:47.931Z,66.97
2019-05-20T18:11:49.120Z,67.70
2019-05-20T18:15:50.088Z,69.00
2019-05-20T18:19:51.037Z,72.30
2019-05-20T18:23:51.979Z,75.37
2019-05-20T18:27:53.023Z,71.97
2019-05-20T18:31:54.075Z,70.67
2019-05-20T18:35:55.173Z,75.00
2019-05-20T18:39:56.059Z,75.83
2019-05-20T18:43:56.952Z,85.07
2019-05-20T18:47:57.953Z,92.13
2019-05-20T18:51:58.851Z,91.97
2019-05-20T18:55:59.942Z,108.90
2019-05-20T19:00:01.140Z,103.70
2019-05-20T19:04:02.107Z,110.80
2019-05-20T19:08:03.154Z,108.87
2019-05-20T19:12:04.111Z,113.17
2019-05-20T19:16:05.240Z,107.77
2019-05-20T19:20:06.378Z,105.77
2019-05-20T19:24:07.490Z,118.50
2019-05-20T19:28:08.368Z,121.97
2019-05-20T19:32:10.182Z,125.00
2019-05-20T19:36:11.216Z,128.80
2019-05-20T19:40:12.480Z,135.40
2019-05-20T19:44:13.622Z,124.10
2019-05-20T19:48:14.704Z,119.17
2019-05-20T19:52:15.771Z,123.70
2019-05-20T19:56:16.766Z,138.03
2019-05-20T20:00:17.822Z,135.00
2019-05-20T20:04:18.763Z,120.03
2019-05-20T20:08:19.643Z,134.53
2019-05-20T20:12:20.551Z,119.27
2019-05-20T20:16:21.540Z,146.47
2019-05-20T20:20:22.567Z,129.30
2019-05-20T20:24:23.672Z,130.53
2019-05-20T20:28:24.565Z,128.93
2019-05-20T20:32:37.473Z,141.03
2019-05-20T20:36:28.352Z,128.57
2019-05-20T20:40:29.205Z,126.17
2019-05-20T20:44:30.109Z,126.23
2019-05-20T20:48:31.123Z,132.80
2019-05-20T20:52:32.610Z,137.97
2019-05-20T20:56:34.330Z,150.50
2019-05-20T21:00:35.486Z,152.03
2019-05-20T21:04:37.057Z,161.43
2019-05-20T21:08:38.019Z,148.70
2019-05-20T21:12:38.951Z,160.27
2019-05-20T21:16:39.996Z,161.40
2019-05-20T21:20:40.875Z,164.97
2019-05-20T21:24:41.852Z,167.07
2019-05-20T21:28:42.723Z,198.47
2019-05-20T21:32:43.849Z,185.17
2019-05-20T21:36:47.906Z,190.10
2019-05-20T21:40:47.694Z,173.63
2019-05-20T21:44:48.656Z,180.63
2019-05-20T21:48:49.554Z,198.87
2019-05-20T21:52:50.429Z,201.23
2019-05-20T21:56:51.305Z,203.20
2019-05-20T22:00:54.115Z,201.37
2019-05-20T22:04:55.003Z,177.17
2019-05-20T22:08:55.905Z,177.57
2019-05-20T22:12:56.875Z,173.70
2019-05-20T22:16:57.970Z,162.60
2019-05-20T22:20:59.066Z,142.37
2019-05-20T22:24:59.982Z,176.13
2019-05-20T22:29:01.170Z,184.50
2019-05-20T22:33:02.158Z,210.23
2019-05-20T22:37:03.106Z,183.90
2019-05-20T22:41:03.996Z,164.53
2019-05-20T22:45:05.385Z,152.50
2019-05-20T22:49:06.324Z,146.47
2019-05-20T22:53:07.340Z,146.37
2019-05-20T22:57:08.220Z,153.83
2019-05-20T23:01:09.339Z,158.10
2019-05-20T23:05:10.831Z,154.47
2019-05-20T23:09:14.756Z,178.47
2019-05-20T23:13:14.709Z,181.07
2019-05-20T23:17:15.677Z,183.60
2019-05-20T23:21:16.663Z,159.90
2019-05-20T23:25:17.641Z,186.77
2019-05-20T23:29:18.538Z,164.23
2019-05-20T23:33:19.621Z,154.53
2019-05-20T23:37:20.580Z,150.93
2019-05-20T23:41:21.429Z,131.80
2019-05-20T23:45:22.519Z,133.17
2019-05-20T23:49:23.388Z,133.60
2019-05-20T23:53:24.265Z,133.23
2019-05-20T23:57:25.237Z,109.50
